createdAt,value
2022-07-26T00:02:06.542Z,27.39
2022-07-26T00:07:03.985Z,27.71
2022-07-26T00:12:01.723Z,27.64
2022-07-26T00:16:59.021Z,27.82
2022-07-26T00:22:20.406Z,27.41
2022-07-26T00:27:37.726Z,27.95
2022-07-26T00:32:43.337Z,27.78
2022-07-26T00:37:42.992Z,27.56
2022-07-26T00:42:44.676Z,27.86
2022-07-26T00:47:48.571Z,27.82
2022-07-26T00:53:06.971Z,27.56
2022-07-26T00:58:05.997Z,27.14
2022-07-26T01:03:09.237Z,26.90
2022-07-26T01:08:10.426Z,26.55
2022-07-26T01:13:25.130Z,26.82
2022-07-26T01:18:32.474Z,26.70
2022-07-26T01:23:36.412Z,25.98
2022-07-26T01:28:54.352Z,26.19
2022-07-26T01:33:55.249Z,26.35
2022-07-26T01:44:13.091Z,26.40
2022-07-26T01:49:30.554Z,26.21
2022-07-26T01:54:29.638Z,25.83
2022-07-26T01:59:29.624Z,26.42
2022-07-26T02:05:04.073Z,26.37
2022-07-26T02:10:10.700Z,26.37
2022-07-26T02:15:16.792Z,26.05
2022-07-26T02:20:17.148Z,26.38
2022-07-26T02:25:32.073Z,25.97
2022-07-26T02:31:36.044Z,25.60
2022-07-26T02:37:37.598Z,26.22
2022-07-26T02:42:57.050Z,25.63
2022-07-26T02:48:00.813Z,25.52
2022-07-26T02:53:04.931Z,26.03
2022-07-26T02:58:08.890Z,25.58
2022-07-26T03:03:29.958Z,25.00
2022-07-26T03:08:33.994Z,25.69
2022-07-26T03:13:42.520Z,25.60
2022-07-26T03:18:40.799Z,25.39
2022-07-26T03:23:47.352Z,25.08
2022-07-26T03:28:51.140Z,25.27
2022-07-26T03:33:58.547Z,24.78
2022-07-26T03:39:04.689Z,25.62
2022-07-26T03:44:34.644Z,25.11
2022-07-26T03:49:32.239Z,25.80
2022-07-26T03:54:30.950Z,25.59
2022-07-26T03:59:29.200Z,25.94
2022-07-26T04:05:01.910Z,26.31
2022-07-26T04:16:08.741Z,26.30
2022-07-26T04:21:25.090Z,27.17
2022-07-26T04:26:22.737Z,28.13
2022-07-26T04:31:36.680Z,29.95
2022-07-26T04:36:36.815Z,31.20
2022-07-26T04:41:34.097Z,32.32
2022-07-26T04:53:04.293Z,31.61
2022-07-26T04:58:04.713Z,30.86
2022-07-26T05:03:02.862Z,30.50
2022-07-26T05:08:12.863Z,29.90
2022-07-26T05:13:14.897Z,29.55
2022-07-26T05:18:20.005Z,30.08
2022-07-26T05:23:24.803Z,30.04
2022-07-26T05:28:24.487Z,30.43
2022-07-26T05:33:21.641Z,31.63
2022-07-26T05:38:19.007Z,34.13
2022-07-26T05:43:40.817Z,36.39
2022-07-26T12:01:16.068Z,40.07
2022-07-26T12:06:15.900Z,39.93
2022-07-26T12:11:18.727Z,40.03
2022-07-26T12:16:44.319Z,39.26
2022-07-26T12:21:48.142Z,39.17
2022-07-26T12:26:45.484Z,38.65
2022-07-26T12:31:43.421Z,38.37
2022-07-26T12:36:48.876Z,38.08
2022-07-26T12:41:59.287Z,37.86
2022-07-26T12:47:04.803Z,37.60
2022-07-26T12:52:04.540Z,38.03
2022-07-26T12:57:34.380Z,38.23
2022-07-26T13:02:43.050Z,38.23
2022-07-26T13:16:12.914Z,38.87
2022-07-26T13:21:05.993Z,38.73
2022-07-26T13:27:05.566Z,39.07
2022-07-26T13:32:22.137Z,38.97
2022-07-26T13:49:40.577Z,38.94
2022-07-26T13:54:49.744Z,38.74
2022-07-26T15:00:08.996Z,38.56
2022-07-26T15:05:30.905Z,38.03
2022-07-26T15:10:35.709Z,37.98
2022-07-26T15:15:52.081Z,38.08
2022-07-26T15:20:49.087Z,38.12
2022-07-26T15:25:48.463Z,37.81
2022-07-26T15:30:46.802Z,37.96
2022-07-26T15:35:46.269Z,37.92
2022-07-26T15:40:44.614Z,37.55
2022-07-26T15:45:43.893Z,37.96
2022-07-26T15:51:04.502Z,37.93
2022-07-26T15:56:15.830Z,37.76
2022-07-26T16:02:08.197Z,37.36
2022-07-26T16:07:33.255Z,37.73
2022-07-26T16:13:07.566Z,36.96
2022-07-26T16:18:08.745Z,36.76
2022-07-26T16:23:10.416Z,36.90
2022-07-26T16:28:08.136Z,36.97
2022-07-26T16:33:09.984Z,36.67
2022-07-26T16:38:12.749Z,36.89
2022-07-26T16:43:12.172Z,36.86
2022-07-26T16:48:09.313Z,36.49
2022-07-26T16:53:55.320Z,36.64
2022-07-26T16:59:21.494Z,36.42
2022-07-26T17:04:28.445Z,36.24
2022-07-26T17:09:27.758Z,36.43
2022-07-26T17:14:24.870Z,36.24
2022-07-26T17:19:31.496Z,36.17
2022-07-26T17:24:29.877Z,35.77
2022-07-26T17:29:29.205Z,35.98
2022-07-26T17:34:26.597Z,35.61
2022-07-26T17:39:23.830Z,35.75
2022-07-26T17:44:45.646Z,35.00
2022-07-26T17:49:44.568Z,35.32
2022-07-26T17:55:08.188Z,35.05
2022-07-26T18:00:10.987Z,34.67
2022-07-26T18:05:10.554Z,34.43
2022-07-26T18:10:11.233Z,34.62
2022-07-26T18:15:38.695Z,34.45
2022-07-26T18:20:36.323Z,34.16
2022-07-26T18:25:33.591Z,34.05
2022-07-26T18:30:41.591Z,34.19
2022-07-26T18:35:41.521Z,33.60
2022-07-26T18:40:39.010Z,33.70
2022-07-26T18:45:37.170Z,33.57
2022-07-26T18:50:34.653Z,33.29
2022-07-26T18:55:36.155Z,33.43
2022-07-26T19:00:37.569Z,32.95
2022-07-26T19:05:37.289Z,32.86
2022-07-26T19:10:35.217Z,33.03
2022-07-26T19:15:32.401Z,33.12
2022-07-26T19:20:39.842Z,32.53
2022-07-26T19:38:49.969Z,32.04
2022-07-26T19:44:23.283Z,32.13
2022-07-26T19:50:30.239Z,32.03
2022-07-26T20:01:59.080Z,31.75
2022-07-26T20:07:03.088Z,32.37
2022-07-26T20:12:36.394Z,31.65
2022-07-26T20:18:29.549Z,31.54
2022-07-26T20:35:54.679Z,31.49
2022-07-26T20:41:03.125Z,31.56
2022-07-26T20:53:46.236Z,31.48
2022-07-26T20:59:39.455Z,30.98
2022-07-26T21:12:05.514Z,31.47
2022-07-26T21:17:53.816Z,30.84
2022-07-26T21:23:03.433Z,31.02
2022-07-26T21:28:13.897Z,31.14
2022-07-26T21:33:16.435Z,30.85
2022-07-26T21:38:41.047Z,30.41
2022-07-26T21:43:43.865Z,30.57
2022-07-26T21:48:50.423Z,30.93
2022-07-26T21:53:55.243Z,31.04
2022-07-26T21:59:12.638Z,30.58
2022-07-26T22:04:30.896Z,30.42
2022-07-26T22:09:29.331Z,30.92
2022-07-26T22:14:54.614Z,30.67
2022-07-26T22:19:57.379Z,30.62
2022-07-26T22:25:50.872Z,30.50
2022-07-26T22:31:00.412Z,30.30
2022-07-26T22:36:04.458Z,30.75
2022-07-26T22:41:08.149Z,30.57
2022-07-26T22:46:11.025Z,30.65
2022-07-26T22:51:12.467Z,30.49
2022-07-26T22:56:19.645Z,30.44
2022-07-26T23:01:21.687Z,30.13
2022-07-26T23:06:31.867Z,29.89
2022-07-26T23:11:36.037Z,30.41
2022-07-26T23:16:39.022Z,29.69
2022-07-26T23:21:37.129Z,30.01
2022-07-26T23:27:12.637Z,30.30
2022-07-26T23:32:44.657Z,30.08
2022-07-26T23:37:48.995Z,30.14
2022-07-26T23:42:53.941Z,30.04
2022-07-26T23:47:57.766Z,29.83
2022-07-26T23:52:55.599Z,29.76
2022-07-26T23:57:53.620Z,29.37
